createdAt,value
2022-09-21T00:00:52.364Z,6.88
2022-09-21T00:06:11.629Z,6.85
2022-09-21T00:11:20.861Z,6.83
2022-09-21T00:16:28.155Z,6.81
2022-09-21T00:21:39.403Z,6.79
2022-09-21T00:26:46.281Z,6.76
2022-09-21T00:31:53.207Z,6.74
2022-09-21T00:37:00.082Z,6.73
2022-09-21T00:42:11.335Z,6.72
2022-09-21T00:47:23.154Z,6.71
2022-09-21T00:52:33.873Z,6.69
2022-09-21T00:57:40.902Z,6.69
2022-09-21T01:02:48.675Z,6.69
2022-09-21T01:07:58.283Z,6.69
2022-09-21T01:13:20.110Z,6.66
2022-09-21T01:18:33.453Z,6.64
2022-09-21T01:24:17.762Z,6.61
2022-09-21T01:29:29.040Z,6.58
2022-09-21T01:34:39.961Z,6.56
2022-09-21T01:39:49.926Z,6.51
2022-09-21T01:45:00.717Z,6.48
2022-09-21T01:50:10.721Z,6.46
2022-09-21T01:55:22.029Z,6.48
2022-09-21T02:00:30.968Z,6.52
2022-09-21T02:05:38.241Z,6.59
2022-09-21T02:10:50.328Z,6.70
2022-09-21T02:16:27.688Z,6.83
2022-09-21T02:21:41.756Z,6.93
2022-09-21T02:26:54.653Z,7.00
2022-09-21T02:32:09.148Z,7.09
2022-09-21T02:37:23.495Z,7.15
2022-09-21T02:42:34.398Z,7.20
2022-09-21T02:47:48.061Z,7.27
2022-09-21T02:52:56.618Z,7.32
2022-09-21T02:58:08.073Z,7.33
2022-09-21T03:03:20.668Z,7.41
2022-09-21T03:08:27.629Z,7.47
2022-09-21T03:13:34.677Z,7.52
2022-09-21T03:18:44.325Z,7.54
2022-09-21T03:23:52.799Z,7.53
2022-09-21T03:29:01.318Z,7.55
2022-09-21T03:34:09.367Z,7.56
2022-09-21T03:39:18.018Z,7.58
2022-09-21T03:44:27.257Z,7.61
2022-09-21T03:49:35.565Z,7.63
2022-09-21T03:54:43.119Z,7.64
2022-09-21T03:59:50.144Z,7.64
2022-09-21T04:04:57.204Z,7.62
2022-09-21T04:10:05.570Z,7.63
2022-09-21T04:15:14.987Z,7.65
2022-09-21T04:20:23.411Z,7.67
2022-09-21T04:25:30.412Z,7.69
2022-09-21T04:30:38.085Z,7.72
2022-09-21T04:35:45.199Z,7.72
2022-09-21T04:40:59.132Z,7.74
2022-09-21T04:46:10.801Z,7.77
2022-09-21T04:51:16.884Z,7.77
2022-09-21T04:56:23.932Z,7.77
2022-09-21T05:01:30.916Z,7.82
2022-09-21T05:06:37.980Z,7.82
2022-09-21T05:11:45.757Z,7.82
2022-09-21T05:16:52.908Z,7.85
2022-09-21T05:21:59.865Z,7.91
2022-09-21T05:27:07.095Z,7.95
2022-09-21T05:32:22.088Z,7.91
2022-09-21T05:37:44.780Z,7.93
2022-09-21T05:42:54.429Z,7.93
2022-09-21T05:48:12.571Z,7.94
2022-09-21T05:53:32.815Z,7.98
2022-09-21T05:58:52.892Z,8.03
2022-09-21T06:04:03.533Z,8.08
2022-09-21T06:09:10.768Z,8.12
2022-09-21T06:14:24.707Z,8.26
2022-09-21T06:19:31.818Z,8.38
2022-09-21T06:24:54.850Z,8.44
2022-09-21T06:30:01.871Z,8.54
2022-09-21T06:35:10.163Z,8.58
2022-09-21T06:40:17.377Z,8.70
2022-09-21T06:45:24.264Z,8.90
2022-09-21T06:50:31.104Z,9.16
2022-09-21T06:55:38.136Z,9.29
2022-09-21T07:00:47.080Z,9.30
2022-09-21T07:05:54.639Z,9.35
2022-09-21T07:11:02.955Z,9.47
2022-09-21T07:16:10.794Z,9.50
2022-09-21T07:21:17.926Z,9.45
2022-09-21T07:26:25.190Z,9.42
2022-09-21T07:31:32.111Z,9.44
2022-09-21T07:36:39.511Z,9.48
2022-09-21T07:41:46.283Z,9.60
2022-09-21T07:46:53.138Z,9.72
2022-09-21T07:52:03.848Z,9.79
2022-09-21T07:57:30.882Z,9.88
2022-09-21T08:02:37.954Z,9.98
2022-09-21T08:07:44.867Z,10.05
2022-09-21T08:12:51.699Z,10.11
2022-09-21T08:17:59.088Z,10.31
2022-09-21T08:23:06.171Z,10.48
2022-09-21T08:28:13.547Z,10.57
2022-09-21T08:33:24.874Z,10.75
2022-09-21T08:38:38.162Z,10.98
2022-09-21T08:43:50.282Z,11.13
2022-09-21T08:49:02.680Z,11.19
2022-09-21T08:54:23.936Z,11.29
2022-09-21T08:59:31.250Z,11.45
2022-09-21T09:04:57.108Z,11.59
2022-09-21T09:10:24.169Z,11.66
2022-09-21T09:15:45.846Z,11.82
2022-09-21T09:20:58.608Z,11.98
2022-09-21T09:26:10.272Z,12.24
2022-09-21T09:31:24.745Z,12.68
2022-09-21T09:36:57.238Z,13.11
2022-09-21T09:42:33.875Z,13.36
2022-09-21T09:48:00.720Z,13.57
2022-09-21T09:53:13.938Z,13.77
2022-09-21T09:58:23.958Z,13.94
2022-09-21T10:03:31.592Z,14.06
2022-09-21T10:08:47.619Z,14.22
2022-09-21T10:13:55.474Z,14.27
2022-09-21T10:19:06.002Z,14.20
2022-09-21T10:24:23.580Z,14.29
2022-09-21T10:29:41.148Z,14.46
2022-09-21T10:35:14.685Z,14.66
2022-09-21T10:40:37.131Z,14.84
2022-09-21T10:45:56.777Z,14.93
2022-09-21T10:51:05.265Z,15.10
2022-09-21T10:56:20.457Z,15.21
2022-09-21T11:01:32.193Z,15.30
2022-09-21T11:06:46.110Z,15.29
2022-09-21T11:12:00.920Z,15.29
2022-09-21T11:17:18.714Z,15.28
2022-09-21T11:22:34.752Z,15.54
2022-09-21T11:27:44.059Z,15.64
2022-09-21T11:33:11.795Z,15.66
2022-09-21T11:38:36.799Z,15.71
2022-09-21T11:44:05.080Z,15.90
2022-09-21T11:49:34.784Z,16.15
2022-09-21T11:55:12.789Z,16.07
2022-09-21T12:00:22.204Z,16.58
2022-09-21T12:05:35.792Z,16.87
2022-09-21T12:10:53.646Z,17.25
2022-09-21T12:16:10.190Z,18.35
2022-09-21T12:21:22.946Z,19.39
2022-09-21T12:26:35.159Z,20.09
2022-09-21T12:31:46.206Z,20.90
2022-09-21T12:37:00.791Z,21.23
2022-09-21T12:42:24.282Z,20.55
2022-09-21T12:47:42.631Z,19.42
2022-09-21T12:52:50.606Z,18.60
2022-09-21T12:58:17.816Z,17.98
2022-09-21T13:03:36.320Z,17.47
2022-09-21T13:14:02.410Z,17.01
2022-09-21T13:19:24.682Z,16.81
2022-09-21T13:24:33.156Z,16.71
2022-09-21T13:29:42.860Z,16.56
2022-09-21T13:34:51.216Z,16.48
2022-09-21T13:40:42.546Z,16.38
2022-09-21T13:45:58.429Z,16.30
2022-09-21T13:51:10.763Z,16.12
2022-09-21T13:56:25.800Z,15.95
2022-09-21T14:01:52.722Z,15.97
2022-09-21T14:07:04.991Z,16.16
2022-09-21T14:12:25.225Z,16.38
2022-09-21T14:17:41.643Z,16.46
2022-09-21T14:22:49.186Z,16.37
2022-09-21T14:27:59.496Z,16.47
2022-09-21T14:33:21.456Z,16.68
2022-09-21T14:38:31.224Z,16.92
2022-09-21T14:43:42.127Z,17.15
2022-09-21T14:49:00.466Z,17.05
2022-09-21T14:54:22.170Z,16.86
2022-09-21T14:59:54.561Z,16.59
2022-09-21T15:05:27.579Z,16.31
2022-09-21T15:10:56.008Z,17.01
2022-09-21T15:16:22.059Z,18.57
2022-09-21T15:21:32.964Z,19.84
2022-09-21T15:26:43.912Z,20.45
2022-09-21T15:31:50.999Z,20.94
2022-09-21T15:37:08.837Z,21.40
2022-09-21T15:42:23.123Z,22.02
2022-09-21T15:47:30.571Z,22.30
2022-09-21T15:52:42.748Z,22.22
2022-09-21T15:57:51.307Z,22.10
2022-09-21T16:03:09.986Z,21.55
2022-09-21T16:08:30.244Z,21.02
2022-09-21T16:13:55.157Z,20.30
2022-09-21T16:19:02.530Z,19.31
2022-09-21T16:24:19.091Z,18.19
2022-09-21T16:29:27.858Z,17.19
2022-09-21T16:34:39.315Z,16.43
2022-09-21T16:39:46.599Z,15.89
2022-09-21T16:44:53.905Z,15.35
2022-09-21T16:50:01.837Z,14.99
2022-09-21T16:55:11.483Z,14.67
2022-09-21T17:00:22.349Z,14.27
2022-09-21T17:05:29.532Z,13.78
2022-09-21T17:10:41.394Z,13.33
2022-09-21T17:15:52.253Z,13.05
2022-09-21T17:20:59.913Z,12.90
2022-09-21T17:26:16.903Z,12.84
2022-09-21T17:31:26.039Z,12.66
2022-09-21T17:36:33.387Z,12.49
2022-09-21T17:41:46.627Z,12.32
2022-09-21T17:47:00.037Z,12.13
2022-09-21T17:52:33.543Z,11.89
2022-09-21T17:58:00.100Z,11.66
2022-09-21T18:03:22.568Z,11.55
2022-09-21T18:08:31.054Z,11.41
2022-09-21T18:13:52.685Z,11.28
2022-09-21T18:19:17.996Z,11.20
2022-09-21T18:24:31.476Z,11.07
2022-09-21T18:29:41.393Z,10.96
2022-09-21T18:35:04.184Z,10.90
2022-09-21T18:40:26.082Z,10.81
2022-09-21T18:45:38.896Z,10.74
2022-09-21T18:50:52.263Z,10.69
2022-09-21T18:56:00.452Z,10.61
2022-09-21T19:01:12.259Z,10.52
2022-09-21T19:06:38.537Z,10.46
2022-09-21T19:11:53.986Z,10.40
2022-09-21T19:17:13.861Z,10.27
2022-09-21T19:22:29.853Z,10.25
2022-09-21T19:27:41.747Z,10.28
2022-09-21T19:32:50.311Z,10.30
2022-09-21T19:37:59.635Z,10.32
2022-09-21T19:43:23.619Z,10.39
2022-09-21T19:48:31.152Z,10.42
2022-09-21T19:54:04.587Z,10.49
2022-09-21T19:59:30.171Z,10.56
2022-09-21T20:04:44.147Z,10.60
2022-09-21T20:10:06.701Z,10.65
2022-09-21T20:15:18.892Z,10.65
2022-09-21T20:20:27.238Z,10.63
2022-09-21T20:25:38.681Z,10.63
2022-09-21T20:30:44.175Z,10.64
2022-09-21T20:35:56.145Z,10.65
2022-09-21T20:41:04.987Z,10.66
2022-09-21T20:46:13.311Z,10.67
2022-09-21T20:51:21.390Z,10.67
2022-09-21T20:56:30.308Z,10.65
2022-09-21T21:01:37.226Z,10.64
2022-09-21T21:06:45.380Z,10.65
2022-09-21T21:11:53.320Z,10.65
2022-09-21T21:17:00.313Z,10.62
2022-09-21T21:22:07.742Z,10.62
2022-09-21T21:27:18.085Z,10.59
2022-09-21T21:32:26.896Z,10.57
2022-09-21T21:37:33.882Z,10.55
2022-09-21T21:42:40.778Z,10.51
2022-09-21T21:47:47.641Z,10.44
2022-09-21T21:52:58.279Z,10.38
2022-09-21T21:58:05.976Z,10.32
2022-09-21T22:03:12.859Z,10.26
2022-09-21T22:08:20.873Z,10.23
2022-09-21T22:13:34.274Z,10.20
2022-09-21T22:18:42.605Z,10.16
2022-09-21T22:23:52.654Z,10.11
2022-09-21T22:29:01.260Z,10.04
2022-09-21T22:34:09.151Z,9.98
2022-09-21T22:39:16.022Z,9.92
2022-09-21T22:44:22.971Z,9.85
2022-09-21T22:49:29.807Z,9.80
2022-09-21T22:54:36.542Z,9.70
2022-09-21T22:59:43.469Z,9.61
2022-09-21T23:04:50.255Z,9.56
2022-09-21T23:09:57.018Z,9.53
2022-09-21T23:15:03.835Z,9.51
2022-09-21T23:20:12.040Z,9.47
2022-09-21T23:25:18.990Z,9.42
2022-09-21T23:30:25.972Z,9.36
2022-09-21T23:35:32.820Z,9.31
2022-09-21T23:40:40.136Z,9.29
2022-09-21T23:45:47.101Z,9.30
2022-09-21T23:50:54.095Z,9.32
2022-09-21T23:56:01.358Z,9.27
